Time;durP1;ratioP1;P1;durP2;ratioP2;P2;SDS_P1;SDS_P2;PMS_P1;PMS_P2;Temp;Humidity;BMP_temperature;BMP_pressure;BME280_temperature;BME280_humidity;BME280_pressure;Samples;Min_cycle;Max_cycle;Signal;HPM_P1;HPM_P2
2023/05/16 00:00:00;;;;;;;37.50;35.33;;;;;;;18.36;44.99;101835.97;5056923;28;20032;-79
2023/05/16 00:02:25;;;;;;;37.20;35.10;;;;;;;18.34;45.29;101849.94;5056847;28;20025;-79
2023/05/16 00:04:51;;;;;;;38.53;36.00;;;;;;;18.33;45.33;101841.97;5074930;28;20039;-79
2023/05/16 00:07:17;;;;;;;40.65;38.35;;;;;;;18.31;44.81;101842.22;5078301;28;20355;-80
2023/05/16 00:09:42;;;;;;;38.55;36.70;;;;;;;18.27;44.97;101843.88;5080270;28;20028;-78
2023/05/16 00:12:08;;;;;;;39.70;37.35;;;;;;;18.25;45.28;101845.22;5074643;28;20052;-79
2023/05/16 00:14:35;;;;;;;38.28;36.28;;;;;;;18.25;44.83;101843.31;5056783;28;20060;-79
2023/05/16 00:17:00;;;;;;;37.30;35.40;;;;;;;18.24;45.24;101840.84;5074382;28;20028;-81
2023/05/16 00:19:28;;;;;;;38.88;36.80;;;;;;;18.25;44.80;101845.22;5056200;28;20036;-79
2023/05/16 00:21:54;;;;;;;37.67;35.45;;;;;;;18.23;45.32;101845.47;5074217;28;20033;-80
2023/05/16 00:24:20;;;;;;;39.05;36.72;;;;;;;18.21;45.10;101833.16;5074219;28;20020;-80
2023/05/16 00:26:46;;;;;;;38.17;35.55;;;;;;;18.19;44.90;101844.38;5056450;28;20432;-80
2023/05/16 00:29:11;;;;;;;39.22;36.50;;;;;;;18.18;45.02;101842.72;5073984;28;20123;-80
2023/05/16 00:31:36;;;;;;;36.50;34.67;;;;;;;18.15;45.29;101843.28;5056036;28;20028;-80
2023/05/16 00:34:02;;;;;;;39.33;36.90;;;;;;;18.15;45.11;101844.09;5055992;28;20048;-80
2023/05/16 00:36:27;;;;;;;36.13;34.22;;;;;;;18.14;45.03;101836.13;5055986;28;20028;-80
2023/05/16 00:38:53;;;;;;;40.60;38.15;;;;;;;18.12;44.73;101844.63;5055652;28;20035;-80
2023/05/16 00:41:18;;;;;;;39.25;37.05;;;;;;;18.09;44.93;101838.84;5056265;28;20027;-80
2023/05/16 00:43:44;;;;;;;37.72;35.80;;;;;;;18.04;44.90;101842.41;5073776;28;20027;-80
2023/05/16 00:46:09;;;;;;;39.72;37.05;;;;;;;18.07;44.90;101847.34;5055809;28;20029;-79
2023/05/16 00:48:35;;;;;;;38.38;36.35;;;;;;;18.03;45.14;101843.47;5056304;28;20492;-81
2023/05/16 00:51:01;;;;;;;35.92;34.22;;;;;;;18.01;44.88;101844.84;5073775;28;20448;-80
2023/05/16 00:53:27;;;;;;;37.58;35.38;;;;;;;18.01;44.93;101836.63;5055970;28;20036;-80
2023/05/16 00:55:52;;;;;;;37.08;35.17;;;;;;;18.01;44.95;101842.09;5073439;28;20047;-80
2023/05/16 00:58:18;;;;;;;38.33;36.42;;;;;;;17.99;45.00;101842.34;5073505;28;20036;-79
2023/05/16 01:00:46;;;;;;;38.33;36.33;;;;;;;17.97;44.95;101844.56;5073750;28;20364;-79
2023/05/16 01:03:12;;;;;;;36.60;34.70;;;;;;;17.97;45.20;101846.44;5055760;28;20029;-79
2023/05/16 01:05:37;;;;;;;37.53;35.50;;;;;;;17.94;44.89;101845.06;5073797;28;20361;-79
2023/05/16 01:08:03;;;;;;;37.88;35.97;;;;;;;17.93;45.08;101848.91;5056005;28;20456;-80
2023/05/16 01:10:52;;;;;;;38.10;36.00;;;;;;;17.90;44.83;101838.50;5073748;28;20040;-79
2023/05/16 01:13:23;;;;;;;;;;;;;;;17.92;44.75;101845.34;5074474;28;20049;-80
2023/05/16 01:16:19;;;;;;;34.75;33.05;;;;;;;17.83;45.02;101840.63;5073760;28;20382;-81
2023/05/16 01:19:05;;;;;;;36.10;34.05;;;;;;;17.81;44.97;101848.28;5072893;28;20040;-80
2023/05/16 01:22:01;;;;;;;36.97;35.15;;;;;;;17.79;44.99;101847.69;5073360;28;20055;-80
2023/05/16 01:25:06;;;;;;;37.28;35.22;;;;;;;17.77;44.89;101845.22;5073592;28;20021;-79
2023/05/16 01:27:34;;;;;;;37.78;35.63;;;;;;;17.73;44.86;101844.91;5073813;28;20483;-79
2023/05/16 01:29:59;;;;;;;37.30;35.05;;;;;;;17.73;45.04;101844.91;5073078;28;20455;-80
2023/05/16 01:32:25;;;;;;;38.05;35.85;;;;;;;17.71;44.70;101844.38;5055675;28;20049;-80
2023/05/16 01:34:51;;;;;;;35.58;33.88;;;;;;;17.71;45.05;101844.38;5055116;28;20033;-79
2023/05/16 01:37:51;;;;;;;36.53;34.42;;;;;;;17.71;44.56;101841.66;5055537;28;20538;-80
2023/05/16 01:40:30;;;;;;;37.25;35.10;;;;;;;17.69;44.57;101849.28;5073356;28;20064;-79
2023/05/16 01:43:02;;;;;;;36.53;34.63;;;;;;;17.65;44.68;101850.88;5055697;28;20368;-80
2023/05/16 01:45:33;;;;;;;36.85;34.92;;;;;;;17.64;44.46;101851.97;5074022;28;20031;-80
2023/05/16 01:48:07;;;;;;;35.80;34.03;;;;;;;17.63;44.46;101861.25;5077026;28;20039;-80
2023/05/16 01:50:37;;;;;;;34.92;33.22;;;;;;;17.61;44.67;101866.16;5076905;28;20040;-80
2023/05/16 01:53:08;;;;;;;36.17;33.75;;;;;;;17.62;44.75;101861.53;5076969;28;20487;-80
2023/05/16 01:55:49;;;;;;;37.17;35.22;;;;;;;17.61;44.77;101868.06;5076895;28;20408;-80
2023/05/16 01:58:19;;;;;;;37.28;35.47;;;;;;;17.57;44.60;101865.03;5076686;28;20364;-78
2023/05/16 02:00:44;;;;;;;35.67;33.90;;;;;;;17.54;44.88;101868.31;5076369;28;20028;-80
2023/05/16 02:03:10;;;;;;;38.17;35.95;;;;;;;17.53;44.89;101864.72;5058939;28;20029;-79
2023/05/16 02:05:35;;;;;;;36.33;34.60;;;;;;;17.51;44.94;101868.81;5058679;28;20032;-80
2023/05/16 02:08:01;;;;;;;36.25;34.55;;;;;;;17.51;44.66;101869.66;5076798;28;20419;-80
2023/05/16 02:10:26;;;;;;;37.75;35.70;;;;;;;17.50;44.94;101868.00;5077047;28;20060;-79
2023/05/16 02:12:52;;;;;;;35.17;33.47;;;;;;;17.49;44.67;101869.09;5076288;28;20056;-80
2023/05/16 02:15:18;;;;;;;37.45;35.28;;;;;;;17.47;44.59;101875.91;5076419;28;20127;-79
2023/05/16 02:17:43;;;;;;;34.10;32.40;;;;;;;17.46;44.53;101874.22;5076483;28;20044;-79
2023/05/16 02:20:10;;;;;;;36.42;34.22;;;;;;;17.45;44.78;101878.06;5076335;28;20421;-79
2023/05/16 02:22:36;;;;;;;34.30;32.50;;;;;;;17.44;44.47;101884.63;5076345;28;20123;-80
2023/05/16 02:25:02;;;;;;;34.75;33.05;;;;;;;17.44;44.80;101879.97;5076270;28;20035;-80
2023/05/16 02:27:31;;;;;;;37.20;35.03;;;;;;;17.42;44.72;101884.06;5076212;28;20460;-80
2023/05/16 02:29:57;;;;;;;;;;;;;;;17.43;44.41;101881.03;5076925;28;20032;-79
2023/05/16 02:32:22;;;;;;;34.38;32.47;;;;;;;17.37;44.77;101876.63;5076432;28;19923;-79
2023/05/16 02:34:48;;;;;;;34.33;32.47;;;;;;;17.35;44.72;101878.78;5076342;28;20021;-80
2023/05/16 02:37:14;;;;;;;34.22;32.63;;;;;;;17.32;44.67;101878.50;5041779;28;20460;-81
2023/05/16 02:39:39;;;;;;;35.00;33.30;;;;;;;17.32;44.75;101878.50;5076086;28;20035;-81
2023/05/16 02:42:06;;;;;;;35.63;33.63;;;;;;;17.29;44.69;101875.22;5058283;28;20115;-81
2023/05/16 02:44:31;;;;;;;34.67;32.88;;;;;;;17.29;44.51;101883.41;5058174;28;20090;-79
2023/05/16 02:46:57;;;;;;;34.67;32.75;;;;;;;17.27;44.55;101879.28;5075866;28;20036;-80
2023/05/16 02:49:22;;;;;;;35.78;33.88;;;;;;;17.26;44.63;101886.66;5058618;28;20031;-79
2023/05/16 02:51:48;;;;;;;35.78;33.63;;;;;;;17.24;44.41;101886.09;5057989;28;20028;-79
2023/05/16 02:54:14;;;;;;;35.10;33.20;;;;;;;17.21;44.63;101888.50;5057713;28;20032;-79
2023/05/16 02:56:39;;;;;;;35.47;33.10;;;;;;;17.20;44.68;101884.94;5075059;28;20035;-80
2023/05/16 02:59:05;;;;;;;35.45;33.55;;;;;;;17.20;44.79;101892.31;5057005;28;20037;-80
2023/05/16 03:01:30;;;;;;;35.20;33.40;;;;;;;17.17;44.99;101901.84;5077433;28;20116;-80
2023/05/16 03:03:56;;;;;;;33.60;31.80;;;;;;;17.18;44.34;101902.66;5061032;28;20028;-80
2023/05/16 03:06:21;;;;;;;35.20;33.22;;;;;;;17.17;44.40;101906.50;5077527;28;20075;-80
2023/05/16 03:08:47;;;;;;;35.83;34.05;;;;;;;17.15;44.77;101912.19;5058740;28;20036;-80
2023/05/16 03:11:13;;;;;;;35.78;33.42;;;;;;;17.15;44.40;101908.66;5075640;28;20031;-79
2023/05/16 03:13:39;;;;;;;34.15;32.45;;;;;;;17.12;44.78;101907.25;5057748;28;20045;-80
2023/05/16 03:16:05;;;;;;;34.00;32.40;;;;;;;17.10;44.86;101914.88;5057571;28;20104;-80
2023/05/16 03:18:30;;;;;;;35.58;33.72;;;;;;;17.09;44.54;101913.25;5057377;28;20387;-79
2023/05/16 03:20:56;;;;;;;35.55;33.75;;;;;;;17.07;44.44;101915.41;5057250;28;20028;-79
2023/05/16 03:23:22;;;;;;;35.20;33.10;;;;;;;17.05;44.60;101912.91;5075465;28;20067;-79
2023/05/16 03:25:48;;;;;;;33.40;31.38;;;;;;;17.04;44.73;101913.19;5075324;28;20037;-80
2023/05/16 03:28:13;;;;;;;33.75;31.85;;;;;;;17.03;44.57;101914.25;5075241;28;20040;-80
2023/05/16 03:30:38;;;;;;;33.13;31.52;;;;;;;17.02;44.90;101915.34;5075102;28;20083;-80
2023/05/16 03:33:04;;;;;;;36.15;34.00;;;;;;;17.00;44.43;101923.78;5057258;28;20357;-80
2023/05/16 03:35:35;;;;;;;35.10;33.28;;;;;;;16.99;44.66;101919.41;5040390;28;20119;-79
2023/05/16 03:38:01;;;;;;;34.40;31.98;;;;;;;16.97;44.85;101923.50;5074956;28;20115;-79
2023/05/16 03:40:26;;;;;;;35.00;33.20;;;;;;;16.96;44.37;101919.94;5056965;28;20115;-80
2023/05/16 03:42:52;;;;;;;36.03;34.20;;;;;;;16.94;44.51;101924.81;5074851;28;20029;-77
2023/05/16 03:45:17;;;;;;;34.58;32.80;;;;;;;16.94;44.59;101927.56;5057250;28;20115;-80
2023/05/16 03:47:43;;;;;;;32.97;31.27;;;;;;;16.93;44.39;101925.06;5074946;28;20037;-80
2023/05/16 03:50:08;;;;;;;33.65;31.80;;;;;;;16.92;44.55;101926.97;5074748;28;20033;-80
2023/05/16 03:52:34;;;;;;;35.60;33.45;;;;;;;16.89;44.66;101929.41;5074168;28;20487;-80
2023/05/16 03:55:01;;;;;;;35.10;33.40;;;;;;;16.87;44.59;101926.94;5074936;28;20074;-80
2023/05/16 03:57:28;;;;;;;34.25;32.28;;;;;;;16.85;44.47;101937.28;5074459;28;20039;-79
2023/05/16 03:59:54;;;;;;;34.53;32.45;;;;;;;16.85;44.61;101934.53;5056635;28;20117;-80
2023/05/16 04:02:20;;;;;;;35.05;33.10;;;;;;;16.83;44.53;101933.97;5056907;28;20037;-80
2023/05/16 04:04:45;;;;;;;34.60;32.72;;;;;;;16.82;44.38;101937.78;5056769;28;20475;-80
2023/05/16 04:07:11;;;;;;;34.22;32.33;;;;;;;16.80;44.37;101939.94;5074436;28;20453;-80
2023/05/16 04:09:36;;;;;;;33.17;31.38;;;;;;;16.79;44.49;101950.03;5056125;28;20039;-80
2023/05/16 04:12:02;;;;;;;35.22;33.08;;;;;;;16.77;44.51;101952.16;5073937;28;20121;-81
2023/05/16 04:14:27;;;;;;;33.78;32.00;;;;;;;16.76;44.58;101961.44;5074409;28;20032;-79
2023/05/16 04:16:52;;;;;;;32.95;31.35;;;;;;;16.75;44.36;101953.50;5056756;28;20480;-81
2023/05/16 04:19:18;;;;;;;34.10;32.40;;;;;;;16.72;44.47;101960.28;5056348;28;20060;-81
2023/05/16 04:21:43;;;;;;;34.17;31.77;;;;;;;16.72;44.48;101963.00;5074334;28;20029;-79
2023/05/16 04:24:09;;;;;;;33.80;32.20;;;;;;;16.70;44.48;101956.16;5056303;28;20036;-81
2023/05/16 04:26:36;;;;;;;34.38;32.45;;;;;;;16.67;44.66;101969.22;5074191;28;20032;-82
2023/05/16 04:29:01;;;;;;;33.28;31.58;;;;;;;16.66;44.55;101964.03;5057062;28;20341;-82
2023/05/16 04:31:27;;;;;;;33.38;31.58;;;;;;;16.65;44.44;101965.09;5056177;28;20479;-82
2023/05/16 04:33:53;;;;;;;34.22;32.40;;;;;;;16.65;44.50;101967.81;5073888;28;20039;-82
2023/05/16 04:36:18;;;;;;;32.60;30.75;;;;;;;16.63;44.28;101957.19;5056142;28;20032;-81
2023/05/16 04:38:46;;;;;;;34.55;32.50;;;;;;;16.64;44.55;101969.75;5073725;28;20032;-82
2023/05/16 04:41:12;;;;;;;33.60;31.90;;;;;;;16.62;44.63;101979.25;5073900;28;20032;-82
2023/05/16 04:43:37;;;;;;;35.70;33.22;;;;;;;16.60;44.41;101974.03;5073924;28;20381;-82
2023/05/16 04:46:03;;;;;;;35.05;32.97;;;;;;;16.59;44.47;101980.59;5055940;28;20040;-82
2023/05/16 04:48:28;;;;;;;33.75;32.03;;;;;;;16.56;44.47;101981.09;5056101;28;20036;-80
2023/05/16 04:50:54;;;;;;;32.97;31.08;;;;;;;16.56;44.64;101986.56;5056028;28;20418;-82
2023/05/16 04:53:20;;;;;;;32.15;30.40;;;;;;;16.54;44.52;101985.97;5074371;28;20079;-82
2023/05/16 04:55:46;;;;;;;34.67;32.63;;;;;;;16.53;44.45;101981.59;5073687;28;20082;-82
2023/05/16 04:58:11;;;;;;;32.53;30.92;;;;;;;16.53;44.56;101980.75;5039162;28;20082;-83
2023/05/16 05:00:38;;;;;;;34.75;32.70;;;;;;;16.51;44.51;101983.75;5073392;28;20028;-83
2023/05/16 05:03:03;;;;;;;32.00;30.13;;;;;;;16.50;44.43;101986.72;5056043;28;20037;-83
2023/05/16 05:05:29;;;;;;;33.85;32.15;;;;;;;16.51;44.46;101996.56;5073571;28;20035;-79
2023/05/16 05:07:54;;;;;;;35.28;33.47;;;;;;;16.50;44.79;101992.19;5074000;28;20116;-81
2023/05/16 05:10:20;;;;;;;32.97;31.15;;;;;;;16.49;44.44;101998.72;5055684;28;20040;-81
2023/05/16 05:12:45;;;;;;;33.47;31.50;;;;;;;16.50;44.51;102001.19;5054831;28;20477;-81
2023/05/16 05:15:12;;;;;;;34.30;32.50;;;;;;;16.49;44.40;101999.53;5073356;28;20045;-83
2023/05/16 05:17:37;;;;;;;33.95;32.03;;;;;;;16.49;44.52;102004.19;5073659;28;20480;-82
2023/05/16 05:20:07;;;;;;;31.55;29.30;;;;;;;16.48;44.37;102007.97;5056034;28;20040;-82
2023/05/16 05:22:33;;;;;;;34.35;32.63;;;;;;;16.45;44.38;102003.84;5077342;28;20044;-82
2023/05/16 05:24:58;;;;;;;30.80;29.25;;;;;;;16.47;44.49;102006.31;5059631;28;20455;-82
2023/05/16 05:27:24;;;;;;;31.85;30.30;;;;;;;16.46;44.47;101993.78;5077526;28;20087;-82
2023/05/16 05:29:49;;;;;;;33.13;31.15;;;;;;;16.44;44.42;102002.19;5077554;28;20044;-82
2023/05/16 05:32:15;;;;;;;32.33;30.45;;;;;;;16.46;44.39;102007.41;5077313;28;20024;-82
2023/05/16 05:34:40;;;;;;;34.53;32.60;;;;;;;16.44;44.60;102011.19;5077161;28;20036;-81
2023/05/16 05:37:05;;;;;;;32.83;31.00;;;;;;;16.44;44.40;102013.94;5076877;28;20116;-82
2023/05/16 05:39:31;;;;;;;30.65;28.75;;;;;;;16.42;44.69;102013.34;5077416;28;20479;-79
2023/05/16 05:41:57;;;;;;;30.95;29.45;;;;;;;16.44;44.57;102015.84;5068120;28;20062;-82
2023/05/16 05:44:22;;;;;;;32.08;30.48;;;;;;;16.43;44.44;102014.19;5079454;28;20132;-83
2023/05/16 05:46:48;;;;;;;35.00;33.20;;;;;;;16.43;44.53;102015.03;5077447;28;20120;-81
2023/05/16 05:49:14;;;;;;;31.52;29.45;;;;;;;16.44;44.42;102016.66;5077315;28;20457;-79
2023/05/16 05:51:39;;;;;;;33.67;31.98;;;;;;;16.41;44.67;102022.63;5076901;28;20073;-81
2023/05/16 05:54:05;;;;;;;32.90;31.13;;;;;;;16.42;44.62;102018.81;5077374;28;20040;-81
2023/05/16 05:56:30;;;;;;;31.88;30.17;;;;;;;16.46;44.69;102018.31;5063889;28;20123;-82
2023/05/16 05:58:56;;;;;;;33.60;31.27;;;;;;;16.47;44.54;102022.69;5079235;28;20028;-76
2023/05/16 06:01:21;;;;;;;31.35;29.85;;;;;;;16.41;44.64;102024.53;5077013;28;20440;-80
2023/05/16 06:03:47;;;;;;;32.78;31.00;;;;;;;16.43;44.77;102031.38;5076786;28;20025;-80
2023/05/16 06:06:13;;;;;;;32.63;30.65;;;;;;;16.44;44.91;102024.84;5042220;28;20475;-80
2023/05/16 06:08:39;;;;;;;32.03;30.10;;;;;;;16.44;44.83;102033.03;5076610;28;20040;-81
2023/05/16 06:11:05;;;;;;;30.67;29.08;;;;;;;16.46;44.77;102037.41;5058910;28;20120;-80
2023/05/16 06:13:30;;;;;;;32.17;29.95;;;;;;;16.48;44.58;102035.22;5058359;28;20052;-80
2023/05/16 06:15:55;;;;;;;32.30;29.95;;;;;;;16.43;44.67;102034.09;5076750;28;20111;-80
2023/05/16 06:18:21;;;;;;;32.08;30.38;;;;;;;16.45;44.70;102042.03;5076446;28;20044;-82
2023/05/16 06:20:46;;;;;;;30.95;29.35;;;;;;;16.48;44.61;102047.00;5076319;28;20124;-81
2023/05/16 06:23:12;;;;;;;31.08;29.55;;;;;;;16.48;44.85;102046.16;5076431;28;20048;-81
2023/05/16 06:25:38;;;;;;;32.78;30.85;;;;;;;16.48;44.74;102047.00;5076422;28;20035;-80
2023/05/16 06:28:03;;;;;;;30.90;29.30;;;;;;;16.48;44.81;102047.00;5076427;28;20036;-81
2023/05/16 06:30:29;;;;;;;30.80;29.30;;;;;;;16.50;44.73;102044.00;5075992;28;20361;-80
2023/05/16 06:32:54;;;;;;;34.22;32.05;;;;;;;16.48;45.17;102049.72;5074383;28;20036;-79
2023/05/16 06:35:20;;;;;;;33.65;31.75;;;;;;;16.48;44.85;102047.00;5076493;28;20090;-80
2023/05/16 06:37:45;;;;;;;34.33;32.20;;;;;;;16.50;44.75;102047.53;5075928;28;20078;-80
2023/05/16 06:40:11;;;;;;;32.45;30.55;;;;;;;16.51;44.81;102045.66;5058553;28;20058;-80
2023/05/16 06:42:36;;;;;;;32.13;30.38;;;;;;;16.53;45.05;102051.69;5058243;28;20029;-79
2023/05/16 06:45:02;;;;;;;32.63;30.98;;;;;;;16.51;45.30;102062.84;5058575;28;20486;-82
2023/05/16 06:47:28;;;;;;;31.73;30.23;;;;;;;16.53;45.15;102051.69;5057868;28;20064;-81
2023/05/16 06:49:53;;;;;;;33.97;32.10;;;;;;;16.56;45.17;102053.94;5058273;28;20465;-80
2023/05/16 06:52:18;;;;;;;32.40;30.80;;;;;;;16.59;45.15;102058.88;5075846;28;20040;-82
2023/05/16 06:54:44;;;;;;;32.17;30.48;;;;;;;16.58;45.50;102057.19;5076014;28;20028;-82
2023/05/16 06:57:09;;;;;;;31.95;30.25;;;;;;;16.62;45.41;102056.47;5075810;28;20051;-80
2023/05/16 06:59:35;;;;;;;31.55;29.85;;;;;;;16.62;45.56;102048.28;5075291;28;20119;-80
2023/05/16 07:02:01;;;;;;;32.95;31.35;;;;;;;16.65;45.57;102047.75;5075532;28;20039;-80
2023/05/16 07:04:26;;;;;;;32.80;31.05;;;;;;;16.67;45.49;102059.25;5075785;28;20024;-80
2023/05/16 07:06:52;;;;;;;32.78;31.08;;;;;;;16.70;45.28;102059.84;5057682;28;20470;-81
2023/05/16 07:09:18;;;;;;;33.08;31.27;;;;;;;16.74;45.59;102059.09;5075605;28;20068;-79
2023/05/16 07:11:43;;;;;;;32.92;31.25;;;;;;;16.80;45.51;102054.53;5057317;28;20042;-81
2023/05/16 07:14:09;;;;;;;33.03;31.33;;;;;;;16.79;45.64;102061.09;5075849;28;20403;-77
2023/05/16 07:16:35;;;;;;;33.30;31.63;;;;;;;16.83;45.68;102059.50;5057601;28;20036;-81
2023/05/16 07:19:01;;;;;;;32.17;30.45;;;;;;;16.87;45.59;102063.38;5040219;28;20028;-81
2023/05/16 07:21:26;;;;;;;32.38;30.67;;;;;;;16.90;45.86;102067.50;5075484;28;20118;-81
2023/05/16 07:23:52;;;;;;;34.33;32.42;;;;;;;16.90;45.96;102070.25;5075484;28;20033;-80
2023/05/16 07:26:17;;;;;;;36.05;33.83;;;;;;;16.96;45.62;102066.47;5060583;28;20433;-82
2023/05/16 07:28:43;;;;;;;33.85;32.00;;;;;;;16.99;45.56;102072.28;5080013;28;20044;-77
2023/05/16 07:31:08;;;;;;;34.55;32.75;;;;;;;17.02;45.70;102073.69;5074849;28;20052;-80
2023/05/16 07:33:33;;;;;;;32.65;31.10;;;;;;;17.04;45.94;102080.53;5075438;28;20033;-79
2023/05/16 07:36:00;;;;;;;34.65;32.60;;;;;;;17.08;45.81;102073.50;5057084;28;20451;-78
2023/05/16 07:38:25;;;;;;;33.13;31.42;;;;;;;17.14;45.86;102076.28;5074971;28;20060;-78
2023/05/16 07:40:51;;;;;;;35.15;32.72;;;;;;;17.18;46.05;102074.69;5074574;28;20112;-80
2023/05/16 07:43:16;;;;;;;34.00;32.05;;;;;;;17.21;46.02;102072.28;5073656;28;20024;-80
2023/05/16 07:45:42;;;;;;;33.47;31.77;;;;;;;17.27;45.99;102079.44;5074390;28;20032;-77
2023/05/16 07:48:07;;;;;;;34.67;32.92;;;;;;;17.28;45.82;102078.34;5056982;28;20465;-79
2023/05/16 07:50:32;;;;;;;33.60;31.70;;;;;;;17.33;46.09;102063.13;5056907;28;20127;-81
2023/05/16 07:52:58;;;;;;;35.13;33.30;;;;;;;17.37;46.01;102069.72;5074440;28;20028;-80
2023/05/16 07:55:23;;;;;;;33.15;31.55;;;;;;;17.38;46.07;102072.19;5040107;28;20451;-77
2023/05/16 07:57:49;;;;;;;35.35;32.95;;;;;;;17.46;46.07;102070.91;5056724;28;20033;-81
2023/05/16 08:00:15;;;;;;;34.70;32.88;;;;;;;17.51;45.68;102058.16;5075180;28;20033;-80
2023/05/16 08:02:41;;;;;;;35.10;33.00;;;;;;;17.56;46.33;102056.53;5056668;28;20086;-80
2023/05/16 08:05:07;;;;;;;33.65;31.90;;;;;;;17.61;46.12;102060.13;5074426;28;20480;-81
2023/05/16 08:07:33;;;;;;;35.90;34.20;;;;;;;17.67;45.75;102063.75;5074244;28;20063;-81
2023/05/16 08:09:58;;;;;;;35.55;33.75;;;;;;;17.71;46.31;102063.00;5056394;28;20380;-81
2023/05/16 08:12:24;;;;;;;36.20;34.30;;;;;;;17.77;46.19;102063.88;5056676;28;20085;-82
2023/05/16 08:14:49;;;;;;;36.55;34.67;;;;;;;17.81;46.33;102058.72;5074314;28;20093;-85
2023/05/16 08:17:15;;;;;;;35.92;34.13;;;;;;;17.84;46.20;102069.13;5074153;28;20040;-83
2023/05/16 08:19:40;;;;;;;36.20;34.42;;;;;;;17.88;46.40;102065.63;5039547;28;20040;-84
2023/05/16 08:22:08;;;;;;;37.15;35.22;;;;;;;17.92;46.43;102068.69;5056851;28;20040;-84
2023/05/16 08:24:34;;;;;;;36.88;35.08;;;;;;;18.01;46.25;102067.09;5074190;28;20032;-79
2023/05/16 08:26:59;;;;;;;39.20;36.92;;;;;;;18.04;46.48;102077.53;5073908;28;20032;-84
2023/05/16 08:29:25;;;;;;;36.47;34.67;;;;;;;18.08;46.39;102070.44;5074428;28;20062;-82
2023/05/16 08:31:51;;;;;;;39.92;37.78;;;;;;;18.13;46.35;102070.50;5055853;28;20094;-84
2023/05/16 08:34:16;;;;;;;38.00;35.80;;;;;;;18.19;46.28;102070.53;5056005;28;20028;-84
2023/05/16 08:36:41;;;;;;;37.60;35.70;;;;;;;18.26;46.41;102065.66;5056142;28;20050;-83
2023/05/16 08:39:09;;;;;;;38.63;36.53;;;;;;;18.31;46.63;102066.53;5073947;28;20414;-84
2023/05/16 08:41:35;;;;;;;34.42;32.35;;;;;;;18.38;46.35;102064.38;5056889;28;20036;-82
2023/05/16 08:44:00;;;;;;;36.90;35.00;;;;;;;18.41;46.40;102057.56;5062169;28;20036;-81
2023/05/16 08:46:27;;;;;;;35.45;33.50;;;;;;;18.46;46.46;102054.88;5082406;28;20031;-83
2023/05/16 08:48:58;;;;;;;36.00;33.78;;;;;;;18.52;46.19;102064.78;5074003;28;20369;-85
2023/05/16 08:51:24;;;;;;;37.08;35.20;;;;;;;18.55;46.38;102064.22;5075352;28;20024;-84
2023/05/16 08:54:03;;;;;;;36.92;35.00;;;;;;;18.63;46.57;102062.09;5080482;28;20555;-84
2023/05/16 08:56:28;;;;;;;;;;;;;;;18.71;46.45;102064.31;5075000;28;20036;-85
2023/05/16 08:58:56;;;;;;;36.97;35.08;;;;;;;18.72;46.17;102061.34;5073977;28;20007;-85
2023/05/16 09:01:22;;;;;;;37.97;36.07;;;;;;;18.76;46.45;102059.72;5073958;28;20036;-85
2023/05/16 09:03:49;;;;;;;37.10;35.17;;;;;;;18.77;46.07;102077.81;5073842;28;20025;-80
2023/05/16 09:06:15;;;;;;;37.72;35.83;;;;;;;18.81;46.41;102067.97;5073632;28;20024;-85
2023/05/16 09:08:41;;;;;;;37.90;36.00;;;;;;;18.88;46.72;102073.22;5055462;28;20082;-85
2023/05/16 09:11:07;;;;;;;40.75;38.67;;;;;;;18.93;46.39;102067.75;5074007;28;20036;-84
2023/05/16 09:13:33;;;;;;;38.58;36.67;;;;;;;18.97;46.46;102066.13;5055685;28;20060;-84
2023/05/16 09:16:15;;;;;;;40.13;38.05;;;;;;;19.03;46.52;102078.75;5073458;28;20032;-84
2023/05/16 09:19:00;;;;;;;38.85;37.00;;;;;;;19.06;46.43;102076.56;5073464;28;20029;-86
2023/05/16 09:21:30;;;;;;;40.88;38.88;;;;;;;19.09;46.02;102070.56;5073294;28;20021;-83
2023/05/16 09:24:01;;;;;;;40.13;37.83;;;;;;;19.15;46.22;102066.72;5073354;28;20037;-88
2023/05/16 09:26:27;;;;;;;40.22;38.22;;;;;;;19.18;46.06;102071.69;5073292;28;20446;-85
2023/05/16 09:28:54;;;;;;;41.70;39.58;;;;;;;19.24;46.10;102079.66;5073709;28;20036;-80
2023/05/16 09:31:25;;;;;;;41.17;39.22;;;;;;;19.30;46.01;102079.66;5055924;28;20033;-82
2023/05/16 09:33:59;;;;;;;40.30;38.40;;;;;;;19.30;45.76;102083.22;5055671;28;20063;-80
2023/05/16 09:36:25;;;;;;;39.50;37.60;;;;;;;19.34;45.60;102084.34;5055445;28;20029;-84
2023/05/16 09:38:51;;;;;;;41.33;39.35;;;;;;;19.43;45.44;102080.00;5055340;28;20039;-78
2023/05/16 09:41:16;;;;;;;41.13;39.20;;;;;;;19.44;45.69;102075.34;5073196;28;20033;-85
2023/05/16 09:43:43;;;;;;;40.55;38.65;;;;;;;19.45;45.61;102085.19;5073297;28;20036;-85
2023/05/16 09:46:13;;;;;;;45.00;42.78;;;;;;;19.56;45.45;102077.84;5073226;28;20032;-82
2023/05/16 09:48:57;;;;;;;40.72;38.83;;;;;;;19.61;45.62;102083.34;5073063;28;20056;-84
2023/05/16 09:51:22;;;;;;;40.47;38.58;;;;;;;19.66;45.65;102089.63;5073791;28;20029;-84
2023/05/16 09:53:48;;;;;;;41.13;39.13;;;;;;;19.72;45.63;102081.47;5055349;28;20116;-83
2023/05/16 09:56:14;;;;;;;43.22;41.13;;;;;;;19.77;45.37;102073.25;5058190;28;20037;-84
2023/05/16 09:58:42;;;;;;;43.88;41.83;;;;;;;19.80;45.24;102073.50;5038658;28;20036;-83
2023/05/16 10:01:08;;;;;;;44.42;42.10;;;;;;;19.89;45.19;102082.03;5055174;28;20039;-83
2023/05/16 10:03:35;;;;;;;42.40;40.40;;;;;;;19.94;45.20;102071.06;5073168;28;20111;-83
2023/05/16 10:06:02;;;;;;;44.67;42.33;;;;;;;19.96;44.95;102089.97;5055314;28;20047;-83
2023/05/16 10:08:30;;;;;;;44.35;41.85;;;;;;;20.01;45.38;102079.03;5076933;28;20111;-82
2023/05/16 10:10:56;;;;;;;43.15;41.05;;;;;;;20.08;45.00;102076.81;5076614;28;20533;-82
2023/05/16 10:13:25;;;;;;;44.22;42.13;;;;;;;20.14;45.16;102080.41;5076753;28;20052;-84
2023/05/16 10:15:54;;;;;;;44.78;42.67;;;;;;;20.18;45.03;102076.00;5076673;28;20499;-83
2023/05/16 10:18:20;;;;;;;;;;;;;;;20.27;44.74;102088.06;5076897;28;20025;-82
2023/05/16 10:20:51;;;;;;;41.67;39.78;;;;;;;20.17;45.17;102085.34;5076346;28;19912;-82
2023/05/16 10:23:20;;;;;;;43.83;41.72;;;;;;;20.21;45.42;102087.25;5076633;28;20028;-82
2023/05/16 10:25:48;;;;;;;45.17;42.78;;;;;;;20.24;45.39;102083.97;5076392;28;20109;-82
2023/05/16 10:28:15;;;;;;;45.15;42.75;;;;;;;20.32;45.27;102066.94;5058347;28;20046;-83
2023/05/16 10:30:43;;;;;;;44.35;42.25;;;;;;;20.36;45.05;102074.59;5076760;28;20036;-81
2023/05/16 10:33:11;;;;;;;45.23;42.93;;;;;;;20.44;45.19;102074.06;5058437;28;20029;-83
2023/05/16 10:35:37;;;;;;;43.85;41.65;;;;;;;20.52;44.92;102068.00;5076437;28;20090;-84
2023/05/16 10:38:05;;;;;;;45.30;43.03;;;;;;;20.50;45.01;102070.19;5076456;28;20036;-84
2023/05/16 10:40:31;;;;;;;44.95;42.85;;;;;;;20.60;45.08;102069.38;5076262;28;20468;-85
2023/05/16 10:42:58;;;;;;;47.78;45.28;;;;;;;20.65;44.90;102078.44;5058599;28;20028;-83
2023/05/16 10:45:24;;;;;;;47.25;44.88;;;;;;;20.66;44.69;102080.09;5076234;28;20028;-83
2023/05/16 10:47:53;;;;;;;46.22;43.90;;;;;;;20.72;44.56;102078.97;5076275;28;20124;-84
2023/05/16 10:50:44;;;;;;;45.50;43.00;;;;;;;20.77;44.30;102086.38;5076689;28;20033;-82
2023/05/16 10:53:16;;;;;;;47.33;44.92;;;;;;;20.78;44.44;102090.75;5076160;28;20457;-84
2023/05/16 10:55:50;;;;;;;45.88;43.70;;;;;;;20.81;44.74;102092.13;5057842;28;20029;-84
2023/05/16 10:58:39;;;;;;;48.58;46.22;;;;;;;20.86;44.59;102090.16;5076452;28;20028;-85
2023/05/16 11:01:24;;;;;;;49.45;46.72;;;;;;;20.93;44.19;102095.38;5076355;28;20029;-84
2023/05/16 11:03:58;;;;;;;47.10;44.70;;;;;;;20.93;44.07;102084.41;5075767;28;20457;-85
2023/05/16 11:06:24;;;;;;;46.35;44.15;;;;;;;20.95;44.01;102087.69;5058289;28;20040;-85
2023/05/16 11:09:03;;;;;;;48.63;46.33;;;;;;;21.02;44.37;102090.16;5058216;28;20508;-84